Time;durP1;ratioP1;P1;durP2;ratioP2;P2;SDS_P1;SDS_P2;PMS_P1;PMS_P2;Temp;Humidity;BMP_temperature;BMP_pressure;BME280_temperature;BME280_humidity;BME280_pressure;Samples;Min_cycle;Max_cycle;Signal;HPM_P1;HPM_P2
2021/11/30 00:00:07;;;;;;;39.67;3.45;;;;;;;;;;5007046;28;20033;-41
2021/11/30 00:02:34;;;;;;;41.15;4.05;;;;;;;;;;5023926;28;20052;-42
2021/11/30 00:05:01;;;;;;;51.90;5.00;;;;;;;;;;5025368;28;20432;-39
2021/11/30 00:07:29;;;;;;;38.50;3.90;;;;;;;;;;5024526;28;20107;-40
2021/11/30 00:12:25;;;;;;;41.85;4.65;;;;;;;;;;5025137;28;20026;-40
2021/11/30 00:14:53;;;;;;;28.23;2.67;;;;;;;;;;5026552;28;20033;-40
2021/11/30 00:17:21;;;;;;;29.55;2.75;;;;;;;;;;5029589;28;20500;-44
2021/11/30 00:19:49;;;;;;;29.00;2.88;;;;;;;;;;5028642;28;20489;-42
2021/11/30 00:22:17;;;;;;;47.17;4.45;;;;;;;;;;5017678;28;20113;-46
2021/11/30 00:24:44;;;;;;;23.67;3.47;;;;;;;;;;5009229;28;20021;-46
2021/11/30 00:27:11;;;;;;;32.88;3.40;;;;;;;;;;5012580;28;20033;-44
2021/11/30 00:29:38;;;;;;;58.58;4.95;;;;;;;;;;5008312;28;20014;-48
2021/11/30 00:32:05;;;;;;;34.03;3.70;;;;;;;;;;5008296;28;20030;-43
2021/11/30 00:34:33;;;;;;;33.92;4.20;;;;;;;;;;5009880;28;20024;-44
2021/11/30 00:37:00;;;;;;;52.65;5.03;;;;;;;;;;5011661;28;20033;-40
2021/11/30 00:39:27;;;;;;;39.42;3.83;;;;;;;;;;5000182;28;20039;-43
2021/11/30 00:41:58;;;;;;;26.10;3.53;;;;;;;;;;4997101;28;20053;-46
2021/11/30 00:44:28;;;;;;;30.83;4.05;;;;;;;;;;4994353;28;20077;-39
2021/11/30 00:46:56;;;;;;;27.67;3.47;;;;;;;;;;5000953;28;20481;-45
2021/11/30 00:49:23;;;;;;;32.38;4.05;;;;;;;;;;5007335;28;20474;-44
2021/11/30 00:51:51;;;;;;;32.65;4.28;;;;;;;;;;5002783;28;20026;-43
2021/11/30 00:54:18;;;;;;;34.47;3.78;;;;;;;;;;5004363;28;20218;-42
2021/11/30 00:56:46;;;;;;;37.17;4.38;;;;;;;;;;5005431;28;20811;-44
2021/11/30 00:59:14;;;;;;;29.88;3.00;;;;;;;;;;4997281;28;20046;-44
2021/11/30 01:01:41;;;;;;;40.22;4.20;;;;;;;;;;4996387;28;20046;-39
2021/11/30 01:04:10;;;;;;;37.42;3.92;;;;;;;;;;4990765;28;20014;-41
2021/11/30 01:06:37;;;;;;;42.78;4.75;;;;;;;;;;4999366;28;20042;-40
2021/11/30 01:09:06;;;;;;;59.15;5.55;;;;;;;;;;4998864;28;20092;-39
2021/11/30 01:11:33;;;;;;;42.33;5.28;;;;;;;;;;4999643;28;20018;-40
2021/11/30 01:14:00;;;;;;;38.10;5.00;;;;;;;;;;5000356;28;20018;-45
2021/11/30 01:16:26;;;;;;;44.22;4.82;;;;;;;;;;4997699;28;20038;-43
2021/11/30 01:18:53;;;;;;;50.30;5.35;;;;;;;;;;4990586;28;20076;-43
2021/11/30 01:21:20;;;;;;;48.65;5.35;;;;;;;;;;4996567;28;20036;-44
2021/11/30 01:23:47;;;;;;;51.70;5.38;;;;;;;;;;5000934;28;20038;-41
2021/11/30 01:26:15;;;;;;;34.13;4.38;;;;;;;;;;4995674;28;20030;-39
2021/11/30 01:28:42;;;;;;;46.42;5.32;;;;;;;;;;5000729;28;20445;-41
2021/11/30 01:31:09;;;;;;;60.33;5.45;;;;;;;;;;4998542;28;20108;-43
2021/11/30 01:33:36;;;;;;;47.97;5.20;;;;;;;;;;4991521;28;20042;-40
2021/11/30 01:36:04;;;;;;;54.20;7.32;;;;;;;;;;4991689;28;20775;-40
2021/11/30 01:38:32;;;;;;;90.97;7.22;;;;;;;;;;4985068;28;20041;-40
2021/11/30 01:41:02;;;;;;;43.25;4.65;;;;;;;;;;5008168;28;20049;-41
2021/11/30 01:43:39;;;;;;;46.30;5.10;;;;;;;;;;5009132;28;20133;-39
2021/11/30 01:46:10;;;;;;;45.45;5.65;;;;;;;;;;5008905;28;20038;-45
2021/11/30 01:51:23;;;;;;;52.38;8.50;;;;;;;;;;4992825;28;21703;-42
2021/11/30 01:53:50;;;;;;;63.53;7.30;;;;;;;;;;4995518;28;20025;-40
2021/11/30 01:56:17;;;;;;;77.60;9.25;;;;;;;;;;4992677;28;20033;-39
2021/11/30 01:58:45;;;;;;;57.05;8.30;;;;;;;;;;4992739;28;20204;-40
2021/11/30 02:01:12;;;;;;;71.88;9.57;;;;;;;;;;4992896;28;20495;-42
2021/11/30 02:03:39;;;;;;;92.00;10.80;;;;;;;;;;4976687;28;20048;-40
2021/11/30 02:06:06;;;;;;;86.13;10.07;;;;;;;;;;4993720;28;21491;-41
2021/11/30 02:08:33;;;;;;;57.60;8.90;;;;;;;;;;4993382;28;20602;-39
2021/11/30 02:11:00;;;;;;;82.70;9.65;;;;;;;;;;4990054;28;20091;-40
2021/11/30 02:13:27;;;;;;;63.83;8.48;;;;;;;;;;4996598;28;20041;-40
2021/11/30 02:15:55;;;;;;;82.90;8.98;;;;;;;;;;5020382;28;20044;-40
2021/11/30 02:18:24;;;;;;;81.05;9.30;;;;;;;;;;5017955;28;20025;-42
2021/11/30 02:20:58;;;;;;;67.72;10.10;;;;;;;;;;5018914;28;20021;-42
2021/11/30 02:23:41;;;;;;;72.53;14.05;;;;;;;;;;5015363;28;20044;-40
2021/11/30 02:26:11;;;;;;;92.93;16.80;;;;;;;;;;5016819;28;20084;-44
2021/11/30 02:28:40;;;;;;;114.72;19.17;;;;;;;;;;5026559;28;20033;-41
2021/11/30 02:31:08;;;;;;;80.80;15.88;;;;;;;;;;5026351;28;20484;-42
2021/11/30 02:33:35;;;;;;;83.85;17.42;;;;;;;;;;5026793;28;20021;-42
2021/11/30 02:36:14;;;;;;;78.15;15.38;;;;;;;;;;5026699;28;20017;-46
2021/11/30 02:38:41;;;;;;;88.20;11.25;;;;;;;;;;5025781;28;20481;-40
2021/11/30 02:41:08;;;;;;;54.85;11.13;;;;;;;;;;5027439;28;20053;-43
2021/11/30 02:43:35;;;;;;;77.82;12.50;;;;;;;;;;5008763;28;20056;-44
2021/11/30 02:46:02;;;;;;;68.18;10.77;;;;;;;;;;5025443;28;20554;-43
2021/11/30 02:48:28;;;;;;;53.17;10.43;;;;;;;;;;5027634;28;20022;-42
2021/11/30 02:50:57;;;;;;;54.95;9.82;;;;;;;;;;5027550;28;20024;-41
2021/11/30 02:53:24;;;;;;;57.75;10.25;;;;;;;;;;5027430;28;20620;-45
2021/11/30 02:55:51;;;;;;;46.88;9.93;;;;;;;;;;5027385;28;20071;-45
2021/11/30 02:58:18;;;;;;;55.17;9.77;;;;;;;;;;5027496;28;20637;-44
2021/11/30 03:00:45;;;;;;;70.75;9.57;;;;;;;;;;5027080;28;20029;-45
2021/11/30 03:03:13;;;;;;;52.72;10.50;;;;;;;;;;5009761;28;20022;-41
2021/11/30 03:05:40;;;;;;;65.60;9.70;;;;;;;;;;5027528;28;20040;-41
2021/11/30 03:08:09;;;;;;;56.53;8.93;;;;;;;;;;5027507;28;20100;-44
2021/11/30 03:10:36;;;;;;;47.17;9.45;;;;;;;;;;5027441;28;20057;-44
2021/11/30 03:13:03;;;;;;;50.28;9.30;;;;;;;;;;5024083;28;20025;-40
2021/11/30 03:15:31;;;;;;;40.53;8.95;;;;;;;;;;4987982;28;20026;-40
2021/11/30 03:17:58;;;;;;;42.83;7.97;;;;;;;;;;4994012;28;20088;-40
2021/11/30 03:20:25;;;;;;;45.97;8.88;;;;;;;;;;4995672;28;20079;-41
2021/11/30 03:22:52;;;;;;;38.20;6.07;;;;;;;;;;5000624;28;20068;-42
2021/11/30 03:25:19;;;;;;;50.28;6.32;;;;;;;;;;4999291;28;20030;-41
2021/11/30 03:27:48;;;;;;;22.08;3.95;;;;;;;;;;4999133;28;20037;-42
2021/11/30 03:30:16;;;;;;;21.20;4.13;;;;;;;;;;4995717;28;20029;-41
2021/11/30 03:35:28;;;;;;;22.23;3.58;;;;;;;;;;4999666;28;20048;-41
2021/11/30 03:37:55;;;;;;;17.58;3.63;;;;;;;;;;4999936;28;20033;-44
2021/11/30 03:40:22;;;;;;;17.67;2.58;;;;;;;;;;4996740;28;20050;-41
2021/11/30 03:42:49;;;;;;;13.75;2.75;;;;;;;;;;4999112;28;20136;-40
2021/11/30 03:45:16;;;;;;;16.58;2.38;;;;;;;;;;4999348;28;20115;-41
2021/11/30 03:47:43;;;;;;;11.32;2.28;;;;;;;;;;4999359;28;20034;-40
2021/11/30 03:50:11;;;;;;;19.42;2.55;;;;;;;;;;4996174;28;20053;-40
2021/11/30 03:52:39;;;;;;;10.15;2.45;;;;;;;;;;5000663;28;20029;-40
2021/11/30 03:55:06;;;;;;;9.88;2.47;;;;;;;;;;4999128;28;21254;-42
2021/11/30 03:57:33;;;;;;;18.52;2.90;;;;;;;;;;4981865;28;20392;-40
2021/11/30 04:00:05;;;;;;;14.82;1.92;;;;;;;;;;4996668;28;20036;-39
2021/11/30 04:02:32;;;;;;;7.82;1.77;;;;;;;;;;4999944;28;20067;-40
2021/11/30 04:04:59;;;;;;;8.95;1.50;;;;;;;;;;5000869;28;20030;-40
2021/11/30 04:07:26;;;;;;;14.93;2.25;;;;;;;;;;4998767;28;20154;-40
2021/11/30 04:09:53;;;;;;;17.25;1.90;;;;;;;;;;4997330;28;20034;-41
2021/11/30 04:12:20;;;;;;;12.13;2.30;;;;;;;;;;4997305;28;20037;-40
2021/11/30 04:14:47;;;;;;;8.18;1.52;;;;;;;;;;4998995;28;20034;-41
2021/11/30 04:17:14;;;;;;;7.43;1.52;;;;;;;;;;4999673;28;20630;-40
2021/11/30 04:19:41;;;;;;;7.85;1.60;;;;;;;;;;4999646;28;20041;-41
2021/11/30 04:22:08;;;;;;;9.10;1.17;;;;;;;;;;4995867;28;20040;-40
2021/11/30 04:24:35;;;;;;;3.58;1.20;;;;;;;;;;5000024;28;20032;-40
2021/11/30 04:27:02;;;;;;;7.20;1.58;;;;;;;;;;4998994;28;20466;-40
2021/11/30 04:29:30;;;;;;;5.10;1.00;;;;;;;;;;4981305;28;20026;-42
2021/11/30 04:31:57;;;;;;;5.63;0.90;;;;;;;;;;4994941;28;20060;-40
2021/11/30 04:34:24;;;;;;;3.33;1.10;;;;;;;;;;4999510;28;20036;-43
2021/11/30 04:36:51;;;;;;;6.10;1.30;;;;;;;;;;5000032;28;20558;-42
2021/11/30 04:39:18;;;;;;;4.03;0.95;;;;;;;;;;4998860;28;20050;-41
2021/11/30 04:41:45;;;;;;;3.72;0.98;;;;;;;;;;4995271;28;20049;-40
2021/11/30 04:44:13;;;;;;;4.80;1.17;;;;;;;;;;4999114;28;20725;-39
2021/11/30 04:46:51;;;;;;;4.57;1.10;;;;;;;;;;4998775;28;20072;-41
2021/11/30 04:49:39;;;;;;;7.65;0.98;;;;;;;;;;4998940;28;20124;-41
2021/11/30 04:52:08;;;;;;;5.28;1.02;;;;;;;;;;4995892;28;20098;-39
2021/11/30 04:54:35;;;;;;;6.10;1.23;;;;;;;;;;5003088;28;20092;-42
2021/11/30 04:57:02;;;;;;;5.70;0.93;;;;;;;;;;5002580;28;20029;-40
2021/11/30 04:59:29;;;;;;;7.80;1.02;;;;;;;;;;5001745;28;20075;-41
2021/11/30 05:01:58;;;;;;;7.55;1.65;;;;;;;;;;4999165;28;20107;-40
2021/11/30 05:04:25;;;;;;;6.63;1.05;;;;;;;;;;5003376;28;20533;-42
2021/11/30 05:06:52;;;;;;;4.10;1.17;;;;;;;;;;5003088;28;20041;-41
2021/11/30 05:09:19;;;;;;;8.45;1.33;;;;;;;;;;5002049;28;20029;-41
2021/11/30 05:11:46;;;;;;;4.85;0.98;;;;;;;;;;4997140;28;20116;-44
2021/11/30 05:14:13;;;;;;;4.65;0.60;;;;;;;;;;5001469;28;20515;-40
2021/11/30 05:16:40;;;;;;;4.55;1.10;;;;;;;;;;5002486;28;20114;-42
2021/11/30 05:19:07;;;;;;;4.50;1.00;;;;;;;;;;5002075;28;20033;-40
2021/11/30 05:21:34;;;;;;;8.27;0.82;;;;;;;;;;4983445;28;20489;-42
2021/11/30 05:24:04;;;;;;;4.15;1.00;;;;;;;;;;5000082;28;20124;-42
2021/11/30 05:26:31;;;;;;;7.18;0.90;;;;;;;;;;5001531;28;20075;-41
2021/11/30 05:28:58;;;;;;;6.80;0.88;;;;;;;;;;5001766;28;20119;-41
2021/11/30 05:31:25;;;;;;;5.28;0.82;;;;;;;;;;5001836;28;20041;-40
2021/11/30 05:33:52;;;;;;;5.60;0.98;;;;;;;;;;4998495;28;20034;-47
2021/11/30 05:36:20;;;;;;;4.28;1.40;;;;;;;;;;5002000;28;20060;-45
2021/11/30 05:38:47;;;;;;;4.97;0.90;;;;;;;;;;5002512;28;20029;-45
2021/11/30 05:41:14;;;;;;;5.38;0.80;;;;;;;;;;5001734;28;20057;-43
2021/11/30 05:43:41;;;;;;;7.15;1.10;;;;;;;;;;4980196;28;20031;-43
2021/11/30 05:46:08;;;;;;;6.07;0.93;;;;;;;;;;5002016;28;20029;-44
2021/11/30 05:48:35;;;;;;;3.45;0.88;;;;;;;;;;5001962;28;20397;-40
2021/11/30 05:51:04;;;;;;;6.28;1.30;;;;;;;;;;5001858;28;20586;-40
2021/11/30 05:53:31;;;;;;;3.78;1.30;;;;;;;;;;4997590;28;20505;-42
2021/11/30 05:55:59;;;;;;;7.72;1.40;;;;;;;;;;5001105;28;20032;-42
2021/11/30 05:58:27;;;;;;;8.43;1.08;;;;;;;;;;5002198;28;20033;-40
2021/11/30 06:00:59;;;;;;;4.00;0.90;;;;;;;;;;5002060;28;20140;-40
2021/11/30 06:05:53;;;;;;;5.40;0.82;;;;;;;;;;5001699;28;20052;-44
2021/11/30 06:08:20;;;;;;;3.20;0.88;;;;;;;;;;5001561;28;20033;-41
2021/11/30 06:10:47;;;;;;;6.13;1.10;;;;;;;;;;4983341;28;20059;-42
2021/11/30 06:13:14;;;;;;;3.63;0.80;;;;;;;;;;4996415;28;20278;-40
2021/11/30 06:15:41;;;;;;;5.30;0.80;;;;;;;;;;5001043;28;20022;-41
2021/11/30 06:18:08;;;;;;;3.38;0.80;;;;;;;;;;5001983;28;20026;-42
2021/11/30 06:20:37;;;;;;;6.05;0.80;;;;;;;;;;5001053;28;20043;-43
2021/11/30 06:23:04;;;;;;;2.65;0.80;;;;;;;;;;4999899;28;20057;-40
2021/11/30 06:25:30;;;;;;;6.35;0.95;;;;;;;;;;4999019;28;20091;-40
2021/11/30 06:27:57;;;;;;;4.38;0.90;;;;;;;;;;5000564;28;21182;-42
2021/11/30 06:30:24;;;;;;;5.78;0.85;;;;;;;;;;5001130;28;20112;-40
2021/11/30 06:32:52;;;;;;;5.32;1.02;;;;;;;;;;4983115;28;20045;-40
2021/11/30 06:35:19;;;;;;;3.20;0.88;;;;;;;;;;4996416;28;20091;-41
2021/11/30 06:37:46;;;;;;;4.70;0.90;;;;;;;;;;5001394;28;21100;-39
2021/11/30 06:40:13;;;;;;;4.15;1.15;;;;;;;;;;5000488;28;20077;-39
2021/11/30 06:42:40;;;;;;;3.25;0.90;;;;;;;;;;5000796;28;20528;-40
2021/11/30 06:45:08;;;;;;;2.88;1.05;;;;;;;;;;4997452;28;20817;-40
2021/11/30 06:47:36;;;;;;;7.25;1.40;;;;;;;;;;5000415;28;20444;-40
2021/11/30 06:50:03;;;;;;;4.22;1.15;;;;;;;;;;5001491;28;20034;-40
2021/11/30 06:52:30;;;;;;;4.93;1.00;;;;;;;;;;4999992;28;20025;-39
2021/11/30 06:54:57;;;;;;;6.97;1.20;;;;;;;;;;4996089;28;20037;-40
2021/11/30 06:57:25;;;;;;;4.28;0.90;;;;;;;;;;5000578;28;20263;-41
2021/11/30 06:59:52;;;;;;;2.97;0.70;;;;;;;;;;5000827;28;20029;-41
2021/11/30 07:02:21;;;;;;;3.45;0.80;;;;;;;;;;5000517;28;20385;-41
2021/11/30 07:04:51;;;;;;;2.72;0.70;;;;;;;;;;4995435;28;20033;-40
2021/11/30 07:12:49;;;;;;;3.95;0.90;;;;;;;;;;5014846;28;20068;-40
2021/11/30 07:15:17;;;;;;;1.48;0.60;;;;;;;;;;5010455;28;20120;-40
2021/11/30 07:17:44;;;;;;;3.45;1.20;;;;;;;;;;5016039;28;20030;-40
2021/11/30 07:20:11;;;;;;;3.22;0.73;;;;;;;;;;5015228;28;20500;-41
2021/11/30 07:22:38;;;;;;;3.25;0.70;;;;;;;;;;5015385;28;20033;-39
2021/11/30 07:25:05;;;;;;;2.72;0.65;;;;;;;;;;5010466;28;20041;-42
2021/11/30 07:27:32;;;;;;;3.47;0.75;;;;;;;;;;5015550;28;20041;-41
2021/11/30 07:29:59;;;;;;;1.65;0.40;;;;;;;;;;4997554;28;20025;-44
2021/11/30 07:32:26;;;;;;;9.27;1.25;;;;;;;;;;5015058;28;20638;-42
2021/11/30 07:34:53;;;;;;;4.55;0.85;;;;;;;;;;5012603;28;20021;-42
2021/11/30 07:37:20;;;;;;;5.55;0.80;;;;;;;;;;5013609;28;20037;-40
2021/11/30 07:39:47;;;;;;;3.08;0.95;;;;;;;;;;5015599;28;20548;-43
2021/11/30 07:42:14;;;;;;;1.60;0.55;;;;;;;;;;5015278;28;20100;-41
2021/11/30 07:44:42;;;;;;;2.33;0.70;;;;;;;;;;5013772;28;20690;-40
2021/11/30 07:47:09;;;;;;;2.92;0.70;;;;;;;;;;5010896;28;20060;-41
2021/11/30 07:49:35;;;;;;;5.55;0.70;;;;;;;;;;5015345;28;20511;-40
2021/11/30 07:52:02;;;;;;;2.42;0.80;;;;;;;;;;5015112;28;20033;-39
2021/11/30 07:54:30;;;;;;;3.58;0.80;;;;;;;;;;5015479;28;20030;-40
2021/11/30 07:56:57;;;;;;;2.63;0.70;;;;;;;;;;5010171;28;20030;-40
2021/11/30 07:59:24;;;;;;;2.45;0.70;;;;;;;;;;5014765;28;20029;-43
2021/11/30 08:01:51;;;;;;;3.83;0.70;;;;;;;;;;4997254;28;20059;-41
2021/11/30 08:04:18;;;;;;;3.70;0.85;;;;;;;;;;5014549;28;20643;-41
2021/11/30 08:06:45;;;;;;;3.13;0.85;;;;;;;;;;5010834;28;20843;-41
2021/11/30 08:09:12;;;;;;;3.38;0.77;;;;;;;;;;5014811;28;20018;-43
2021/11/30 08:11:39;;;;;;;4.18;0.73;;;;;;;;;;5014640;28;20068;-43
2021/11/30 08:14:06;;;;;;;4.60;0.98;;;;;;;;;;5014523;28;20034;-44
2021/11/30 08:16:33;;;;;;;1.70;0.60;;;;;;;;;;5009997;28;20060;-40
2021/11/30 08:19:00;;;;;;;5.63;0.90;;;;;;;;;;4999492;28;20517;-44
2021/11/30 08:21:29;;;;;;;4.07;0.70;;;;;;;;;;5015043;28;20041;-42
2021/11/30 08:23:56;;;;;;;5.80;0.82;;;;;;;;;;5014743;28;20866;-40
2021/11/30 08:26:23;;;;;;;9.60;0.85;;;;;;;;;;5009416;28;20034;-42
2021/11/30 08:28:50;;;;;;;6.20;1.00;;;;;;;;;;5017277;28;20140;-44
2021/11/30 08:31:17;;;;;;;4.38;0.52;;;;;;;;;;5019328;28;20040;-41
2021/11/30 08:33:44;;;;;;;2.90;0.77;;;;;;;;;;5018675;28;20033;-41
2021/11/30 08:36:11;;;;;;;2.88;0.73;;;;;;;;;;5016352;28;20038;-45
2021/11/30 08:38:39;;;;;;;2.60;0.80;;;;;;;;;;5015958;28;20107;-42
2021/11/30 08:41:06;;;;;;;2.53;0.60;;;;;;;;;;5017793;28;20037;-42
2021/11/30 08:43:33;;;;;;;4.88;0.60;;;;;;;;;;5001543;28;20099;-42
2021/11/30 08:46:00;;;;;;;4.93;0.50;;;;;;;;;;5017796;28;20374;-40
2021/11/30 08:48:27;;;;;;;5.78;0.70;;;;;;;;;;5013772;28;20038;-42
2021/11/30 08:50:55;;;;;;;5.53;0.88;;;;;;;;;;5018633;28;20554;-40
2021/11/30 08:53:23;;;;;;;5.90;0.63;;;;;;;;;;5016760;28;20037;-41
2021/11/30 08:55:50;;;;;;;2.72;0.65;;;;;;;;;;5018099;28;20024;-45
2021/11/30 08:58:17;;;;;;;9.80;1.05;;;;;;;;;;5013472;28;20037;-41
2021/11/30 09:00:44;;;;;;;4.65;0.90;;;;;;;;;;5018514;28;20025;-42
2021/11/30 09:03:11;;;;;;;2.42;0.70;;;;;;;;;;5000751;28;20030;-41
2021/11/30 09:05:38;;;;;;;2.72;0.60;;;;;;;;;;5016950;28;20029;-41
2021/11/30 09:08:05;;;;;;;1.88;0.50;;;;;;;;;;5013031;28;20069;-39
2021/11/30 09:10:32;;;;;;;7.68;1.20;;;;;;;;;;5018089;28;20029;-40
2021/11/30 09:12:59;;;;;;;6.25;0.80;;;;;;;;;;5017601;28;20064;-39
2021/11/30 09:15:26;;;;;;;5.63;0.88;;;;;;;;;;5017384;28;20029;-40
2021/11/30 09:17:56;;;;;;;7.85;0.70;;;;;;;;;;5012479;28;20087;-40
2021/11/30 09:20:23;;;;;;;7.38;0.73;;;;;;;;;;5017715;28;20022;-40
2021/11/30 09:22:51;;;;;;;5.90;1.02;;;;;;;;;;5018283;28;20614;-39
2021/11/30 09:25:19;;;;;;;6.07;1.08;;;;;;;;;;5017398;28;20313;-40
2021/11/30 09:27:46;;;;;;;6.00;0.90;;;;;;;;;;5014199;28;20260;-40
2021/11/30 09:30:14;;;;;;;25.42;1.80;;;;;;;;;;5017298;28;20021;-43
2021/11/30 09:32:41;;;;;;;5.90;1.20;;;;;;;;;;5017571;28;20029;-40
2021/11/30 09:35:10;;;;;;;5.28;0.70;;;;;;;;;;5017644;28;20037;-41
2021/11/30 09:37:38;;;;;;;6.88;0.80;;;;;;;;;;5016932;28;20052;-42
2021/11/30 09:40:06;;;;;;;6.32;1.00;;;;;;;;;;5014611;28;20046;-46
2021/11/30 09:42:33;;;;;;;7.40;0.80;;;;;;;;;;5017560;28;20033;-42
2021/11/30 09:45:04;;;;;;;7.57;0.90;;;;;;;;;;5016289;28;20884;-48
2021/11/30 09:47:32;;;;;;;11.05;1.35;;;;;;;;;;5017127;28;20041;-42
2021/11/30 09:50:00;;;;;;;20.75;1.60;;;;;;;;;;5011995;28;20702;-43
2021/11/30 09:52:27;;;;;;;12.80;1.33;;;;;;;;;;5016149;28;20116;-44
2021/11/30 09:54:54;;;;;;;11.85;1.52;;;;;;;;;;5015736;28;20021;-41
2021/11/30 09:57:22;;;;;;;32.33;3.00;;;;;;;;;;5016598;28;20120;-43
2021/11/30 09:59:49;;;;;;;36.70;2.53;;;;;;;;;;4995605;28;20550;-45
2021/11/30 10:02:16;;;;;;;25.48;2.25;;;;;;;;;;5017172;28;20029;-39
2021/11/30 10:04:44;;;;;;;25.73;2.00;;;;;;;;;;5015618;28;20030;-42
2021/11/30 10:07:11;;;;;;;18.08;1.85;;;;;;;;;;5016716;28;20039;-40
2021/11/30 10:09:38;;;;;;;25.73;2.25;;;;;;;;;;5011851;28;20029;-44
2021/11/30 10:12:09;;;;;;;22.63;1.85;;;;;;;;;;5017214;28;20033;-41
2021/11/30 10:14:38;;;;;;;21.92;2.47;;;;;;;;;;5016553;28;20834;-39
2021/11/30 10:17:10;;;;;;;20.38;2.08;;;;;;;;;;5016404;28;20030;-40
2021/11/30 10:19:37;;;;;;;29.42;2.47;;;;;;;;;;4994860;28;20037;-44
2021/11/30 10:22:04;;;;;;;14.25;1.95;;;;;;;;;;5017187;28;20033;-45
2021/11/30 10:24:32;;;;;;;27.00;2.10;;;;;;;;;;5016672;28;20029;-43
2021/11/30 10:26:59;;;;;;;23.38;1.42;;;;;;;;;;5016227;28;20670;-41
2021/11/30 10:29:26;;;;;;;34.60;2.72;;;;;;;;;;5011508;28;20084;-43
2021/11/30 10:31:54;;;;;;;25.65;2.22;;;;;;;;;;5016941;28;20075;-40
2021/11/30 10:34:23;;;;;;;13.20;1.17;;;;;;;;;;5015392;28;20512;-39
2021/11/30 10:36:58;;;;;;;10.90;1.27;;;;;;;;;;5016214;28;20034;-42
2021/11/30 10:39:27;;;;;;;13.40;1.30;;;;;;;;;;5011974;28;20054;-39
2021/11/30 10:41:55;;;;;;;22.48;1.90;;;;;;;;;;5014858;28;20068;-39
2021/11/30 10:44:30;;;;;;;11.50;1.60;;;;;;;;;;5016432;28;20037;-40
2021/11/30 10:47:20;;;;;;;16.92;1.35;;;;;;;;;;5015511;28;20072;-40
2021/11/30 10:49:54;;;;;;;41.10;3.35;;;;;;;;;;5010640;28;20636;-39
2021/11/30 10:52:26;;;;;;;27.23;2.50;;;;;;;;;;5015903;28;20179;-40
2021/11/30 10:55:03;;;;;;;45.03;3.38;;;;;;;;;;5015738;28;20053;-41
2021/11/30 10:57:32;;;;;;;57.03;3.45;;;;;;;;;;5016056;28;20025;-41
2021/11/30 11:00:11;;;;;;;40.33;3.15;;;;;;;;;;5011770;28;20034;-40
2021/11/30 11:03:01;;;;;;;39.60;3.35;;;;;;;;;;5016081;28;20048;-40
2021/11/30 11:05:30;;;;;;;37.33;3.00;;;;;;;;;;5015439;28;20040;-40
2021/11/30 11:08:00;;;;;;;43.97;4.85;;;;;;;;;;5015598;28;20099;-40
2021/11/30 11:10:28;;;;;;;37.33;3.10;;;;;;;;;;5011305;28;20037;-40
2021/11/30 11:12:55;;;;;;;23.30;3.00;;;;;;;;;;5015085;28;20028;-40
2021/11/30 11:15:38;;;;;;;26.50;1.73;;;;;;;;;;5013917;28;20025;-41
2021/11/30 11:18:23;;;;;;;17.23;1.70;;;;;;;;;;5014949;28;20037;-40
2021/11/30 11:20:51;;;;;;;8.63;1.50;;;;;;;;;;5011127;28;20076;-40
2021/11/30 11:23:23;;;;;;;109.18;9.98;;;;;;;;;;5015532;28;20048;-40
2021/11/30 11:25:53;;;;;;;23.50;2.65;;;;;;;;;;5008902;28;20100;-43
2021/11/30 11:28:22;;;;;;;226.38;24.98;;;;;;;;;;5014037;28;20037;-38
2021/11/30 11:30:49;;;;;;;24.52;2.10;;;;;;;;;;5009973;28;20738;-39
2021/11/30 11:33:17;;;;;;;22.63;2.65;;;;;;;;;;5014575;28;20024;-38
2021/11/30 11:35:45;;;;;;;63.00;4.65;;;;;;;;;;5013672;28;20073;-37
2021/11/30 11:38:13;;;;;;;22.92;1.65;;;;;;;;;;5014299;28;20503;-37
2021/11/30 11:40:41;;;;;;;151.38;17.58;;;;;;;;;;5011268;28;20048;-36
2021/11/30 11:43:08;;;;;;;91.03;9.20;;;;;;;;;;5012996;28;20032;-37
2021/11/30 11:45:35;;;;;;;63.50;4.78;;;;;;;;;;5014707;28;20037;-37
2021/11/30 11:48:06;;;;;;;41.10;3.25;;;;;;;;;;5014416;28;20045;-38
2021/11/30 11:50:49;;;;;;;59.53;5.28;;;;;;;;;;5014325;28;20109;-38
2021/11/30 11:53:27;;;;;;;87.03;8.32;;;;;;;;;;5011461;28;20071;-38
2021/11/30 11:56:09;;;;;;;93.22;7.70;;;;;;;;;;5014853;28;20029;-38
2021/11/30 11:58:36;;;;;;;48.53;4.75;;;;;;;;;;5015009;28;20034;-38
2021/11/30 12:01:04;;;;;;;34.67;3.97;;;;;;;;;;5013428;28;20034;-38
2021/11/30 12:03:51;;;;;;;34.15;3.55;;;;;;;;;;5013564;28;20037;-42
2021/11/30 12:06:25;;;;;;;22.08;2.22;;;;;;;;;;5013848;28;20021;-40
2021/11/30 12:09:12;;;;;;;16.83;1.38;;;;;;;;;;5018020;28;20053;-39
2021/11/30 12:11:44;;;;;;;7.50;1.00;;;;;;;;;;4997403;28;20754;-39
2021/11/30 12:14:19;;;;;;;15.73;1.27;;;;;;;;;;5017571;28;20025;-41
2021/11/30 12:17:05;;;;;;;7.80;0.93;;;;;;;;;;5017998;28;20042;-39
2021/11/30 12:19:33;;;;;;;11.95;1.10;;;;;;;;;;5018535;28;20052;-40
2021/11/30 12:22:00;;;;;;;15.25;1.23;;;;;;;;;;5014629;28;20568;-39
2021/11/30 12:24:34;;;;;;;6.28;0.80;;;;;;;;;;5018017;28;20419;-39
2021/11/30 12:27:02;;;;;;;5.75;0.70;;;;;;;;;;5017873;28;20041;-39
2021/11/30 12:29:32;;;;;;;5.57;0.68;;;;;;;;;;4999074;28;20032;-39
2021/11/30 12:32:00;;;;;;;5.05;0.90;;;;;;;;;;5015466;28;20043;-38
2021/11/30 12:34:34;;;;;;;7.25;1.30;;;;;;;;;;5016895;28;20029;-38
2021/11/30 12:37:05;;;;;;;7.18;0.95;;;;;;;;;;5017502;28;20381;-39
2021/11/30 12:39:50;;;;;;;14.50;1.20;;;;;;;;;;5193062;23;20024;-38
2021/11/30 12:42:17;;;;;;;15.68;1.20;;;;;;;;;;5031638;28;20116;-38
2021/11/30 12:44:44;;;;;;;10.48;1.42;;;;;;;;;;5031786;28;20033;-37
2021/11/30 12:47:40;;;;;;;11.45;1.00;;;;;;;;;;5033139;28;20061;-38
2021/11/30 12:50:08;;;;;;;10.35;1.33;;;;;;;;;;5023827;28;20073;-39
2021/11/30 12:52:42;;;;;;;9.98;1.65;;;;;;;;;;5032142;28;20104;-41
2021/11/30 12:55:13;;;;;;;8.07;1.15;;;;;;;;;;5032852;28;20025;-40
2021/11/30 12:57:41;;;;;;;11.95;0.85;;;;;;;;;;5032738;28;20030;-38
2021/11/30 13:00:29;;;;;;;11.52;0.95;;;;;;;;;;5030444;28;20481;-39
2021/11/30 13:03:17;;;;;;;10.20;1.23;;;;;;;;;;5038728;28;20021;-38
2021/11/30 13:05:56;;;;;;;3.97;0.65;;;;;;;;;;5052022;28;20033;-38
2021/11/30 13:08:24;;;;;;;28.75;1.58;;;;;;;;;;5051885;28;20032;-38
2021/11/30 13:10:52;;;;;;;13.30;0.90;;;;;;;;;;5011990;28;20037;-39
2021/11/30 13:13:21;;;;;;;14.05;0.85;;;;;;;;;;5025799;28;20093;-39
2021/11/30 13:15:54;;;;;;;7.10;0.73;;;;;;;;;;5032337;28;20018;-39
2021/11/30 13:18:22;;;;;;;21.20;1.40;;;;;;;;;;5024686;28;20034;-38
2021/11/30 13:20:50;;;;;;;20.95;2.58;;;;;;;;;;5028244;28;20425;-39
2021/11/30 13:23:17;;;;;;;17.85;1.33;;;;;;;;;;5030050;28;20022;-39
2021/11/30 13:25:45;;;;;;;16.70;1.55;;;;;;;;;;5030118;28;20029;-39
2021/11/30 13:28:19;;;;;;;14.48;1.35;;;;;;;;;;5030265;28;20041;-38
2021/11/30 13:30:48;;;;;;;15.48;1.20;;;;;;;;;;5030562;28;20558;-41
2021/11/30 13:33:17;;;;;;;12.90;1.02;;;;;;;;;;5030015;28;20041;-40
2021/11/30 13:35:49;;;;;;;11.60;0.90;;;;;;;;;;5030192;28;20032;-40
2021/11/30 13:38:16;;;;;;;;;;;;;;;;;;5029781;28;20038;-39
2021/11/30 13:40:43;;;;;;;5.95;0.80;;;;;;;;;;5029593;28;20638;-38
2021/11/30 13:43:13;;;;;;;12.88;1.30;;;;;;;;;;5030370;28;20021;-39
2021/11/30 13:45:41;;;;;;;10.02;1.13;;;;;;;;;;5029998;28;20046;-39
2021/11/30 13:48:08;;;;;;;11.25;1.10;;;;;;;;;;5029979;28;20033;-39
2021/11/30 13:50:40;;;;;;;10.75;1.33;;;;;;;;;;5030322;28;20028;-39
2021/11/30 13:53:09;;;;;;;9.52;1.20;;;;;;;;;;5029755;28;20500;-39
2021/11/30 13:55:37;;;;;;;9.82;1.13;;;;;;;;;;5029039;28;20083;-38
2021/11/30 13:58:11;;;;;;;8.27;1.40;;;;;;;;;;5024836;28;20108;-38
2021/11/30 14:00:46;;;;;;;12.02;1.27;;;;;;;;;;5018752;28;20546;-40
2021/11/30 14:03:13;;;;;;;8.07;1.00;;;;;;;;;;5014321;28;20018;-39
2021/11/30 14:05:41;;;;;;;27.75;1.92;;;;;;;;;;5012502;28;20022;-39
2021/11/30 14:08:08;;;;;;;25.60;2.97;;;;;;;;;;5010549;28;20042;-40
2021/11/30 14:10:40;;;;;;;17.00;2.10;;;;;;;;;;5011898;28;20026;-40
2021/11/30 14:13:07;;;;;;;18.23;2.08;;;;;;;;;;5010402;28;20021;-39
2021/11/30 14:15:34;;;;;;;16.90;2.00;;;;;;;;;;5014061;28;20030;-39
2021/11/30 14:18:11;;;;;;;27.70;2.83;;;;;;;;;;5011702;28;20365;-38
2021/11/30 14:20:39;;;;;;;14.30;1.92;;;;;;;;;;5011307;28;20029;-38
2021/11/30 14:23:16;;;;;;;11.70;1.65;;;;;;;;;;5011509;28;20018;-39
2021/11/30 14:25:43;;;;;;;18.52;2.00;;;;;;;;;;5011258;28;20022;-43
2021/11/30 14:28:14;;;;;;;15.07;1.60;;;;;;;;;;5011125;28;20038;-39
2021/11/30 14:30:44;;;;;;;16.13;2.20;;;;;;;;;;5016161;28;20091;-40
2021/11/30 14:33:12;;;;;;;53.22;4.32;;;;;;;;;;5010927;28;20032;-38
2021/11/30 14:35:46;;;;;;;60.45;5.88;;;;;;;;;;5010667;28;20103;-39
2021/11/30 14:38:23;;;;;;;49.83;5.53;;;;;;;;;;5013525;28;20025;-39
2021/11/30 14:40:50;;;;;;;45.50;5.32;;;;;;;;;;5010503;28;20125;-39
2021/11/30 14:43:19;;;;;;;37.92;2.92;;;;;;;;;;5010867;28;20097;-38
2021/11/30 14:45:51;;;;;;;37.38;3.42;;;;;;;;;;5010395;28;20021;-41
2021/11/30 14:48:18;;;;;;;25.83;2.00;;;;;;;;;;5011482;28;20025;-39
2021/11/30 14:50:50;;;;;;;24.13;2.30;;;;;;;;;;5013982;28;20025;-39
2021/11/30 14:53:22;;;;;;;23.75;2.17;;;;;;;;;;5019054;28;20010;-39
2021/11/30 14:55:49;;;;;;;15.65;1.60;;;;;;;;;;5017876;28;20037;-39
2021/11/30 14:58:22;;;;;;;13.90;1.90;;;;;;;;;;5014695;28;20523;-38
2021/11/30 15:00:49;;;;;;;16.70;1.40;;;;;;;;;;5017446;28;20156;-38